Tuskegee, Oklahoma
Current Conditions -  °F | °C
As of 3:15 AM on Friday 19 Dec 2014 (Local Time) from KOKM Reporting Station
Haze Haze  
Wind Chill: 34°   Ceiling: 600
Heat Index: 39°   Visibility: 5mi
Dew Point: 38°   Wind: 8mph
Humidity: 95%   Direction: 360°N
Pressure: 30.21"   Gusts: NA
Location:  35.7718°N, 96.3174°W
Report Text: KOKM 190915Z AUTO 36007KT 300V020 5SM BR OVC006 04/03 A3021 RMK AO2 T00400033
Loading
Personal Weather Stations






























Interactive Weather Map New forecast layout! Learn more

10-Day Weather Forecast

Advertisements
Track Severe Weather on mobile